Irving South's Hourly Summary for Thursday, April 20, 2017
Hour Temp
(f)
RH
(%)
Solar Rad.
(MJ/m2)
Rainfall
(in)
Wind
(mph)
4/20/2017 12:00 AM 72 70 0 0 1.92
4/20/2017 1:00 AM 71 72 0 0 2.7
4/20/2017 2:00 AM 70 74 0 0 3.16
4/20/2017 3:00 AM 69 77 0 0 2.92
4/20/2017 4:00 AM 69 79 0 0 2.31
4/20/2017 5:00 AM 68 77 0 0 3.21
4/20/2017 6:00 AM 69 74 0 0 4.79
4/20/2017 7:00 AM 69 73 0 0 4.11
4/20/2017 8:00 AM 69 74 0.11 0 2.72
4/20/2017 9:00 AM 70 69 0.46 0 3.04
4/20/2017 10:00 AM 72 63 1.45 0 4.63
4/20/2017 11:00 AM 75 56 1.92 0 4.89
4/20/2017 12:00 PM 75 58 0.94 0 3.42
4/20/2017 1:00 PM 78 51 2.47 0 3.09
4/20/2017 2:00 PM 80 48 3.21 0 3.39
4/20/2017 3:00 PM 81 45 3.25 0 4
4/20/2017 4:00 PM 82 45 2.36 0 3.48
4/20/2017 5:00 PM 83 43 2.19 0 3.4
4/20/2017 6:00 PM 82 44 0.73 0 2.41
4/20/2017 7:00 PM 82 46 0.8 0 2.17
4/20/2017 8:00 PM 79 50 0.18 0 0.88
4/20/2017 9:00 PM 76 58 0 0 0.22
4/20/2017 10:00 PM 74 63 0 0 0.01
4/20/2017 11:00 PM 72 68 0 0 0.05
Data Summary 74 61 20.07 0.00 2.79